Time;durP1;ratioP1;P1;durP2;ratioP2;P2;SDS_P1;SDS_P2;PMS_P1;PMS_P2;Temp;Humidity;BMP_temperature;BMP_pressure;BME280_temperature;BME280_humidity;BME280_pressure;Samples;Min_cycle;Max_cycle;Signal;HPM_P1;HPM_P2
2023/06/28 00:01:14;;;;;;;4.88;2.75;;;;;;;27.43;39.48;101965.13;5076202;28;20028;-73
2023/06/28 00:03:40;;;;;;;7.60;3.25;;;;;;;27.41;39.61;101964.38;5076139;28;20026;-72
2023/06/28 00:06:05;;;;;;;7.25;2.97;;;;;;;27.33;40.08;101955.91;5075454;28;20181;-72
2023/06/28 00:08:31;;;;;;;4.43;2.63;;;;;;;27.15;40.58;101955.22;5076093;28;20446;-72
2023/06/28 00:10:56;;;;;;;6.75;3.28;;;;;;;27.37;39.99;101954.78;5076049;28;20550;-72
2023/06/28 00:13:22;;;;;;;11.27;3.15;;;;;;;27.78;39.52;101953.94;5075152;28;20024;-72
2023/06/28 00:15:48;;;;;;;6.10;2.97;;;;;;;27.50;39.97;101954.84;5075637;28;20412;-72
2023/06/28 00:18:13;;;;;;;5.13;2.50;;;;;;;27.62;39.90;101947.84;5075155;28;20091;-72
2023/06/28 00:20:40;;;;;;;3.05;2.38;;;;;;;27.43;39.85;101954.38;5093819;28;20024;-72
2023/06/28 00:23:09;;;;;;;7.20;2.58;;;;;;;27.43;40.16;101954.38;5075721;28;20061;-71
2023/06/28 00:25:35;;;;;;;4.88;2.58;;;;;;;27.46;40.00;101954.19;5092688;28;20027;-71
2023/06/28 00:28:01;;;;;;;6.28;2.67;;;;;;;27.47;40.08;101955.91;5075973;28;20115;-72
2023/06/28 00:30:26;;;;;;;6.03;2.55;;;;;;;27.81;39.33;101953.72;5093507;28;20103;-72
2023/06/28 00:32:52;;;;;;;5.80;2.75;;;;;;;27.58;39.20;101953.41;5074584;28;20020;-72
2023/06/28 00:35:18;;;;;;;8.75;3.30;;;;;;;26.63;40.60;101954.78;5075429;28;20052;-72
2023/06/28 00:37:43;;;;;;;4.00;2.58;;;;;;;27.01;40.10;101948.94;5074879;28;20032;-72
2023/06/28 00:40:09;;;;;;;5.30;2.55;;;;;;;26.95;40.08;101959.19;5074739;28;20431;-73
2023/06/28 00:42:35;;;;;;;4.03;2.35;;;;;;;26.20;41.80;101952.84;5093024;28;20028;-72
2023/06/28 00:45:01;;;;;;;5.03;3.03;;;;;;;27.57;38.98;101951.69;5075434;28;20146;-72
2023/06/28 00:47:30;;;;;;;4.90;2.78;;;;;;;28.06;38.13;101952.13;5074692;28;20016;-72
2023/06/28 00:49:56;;;;;;;8.65;3.08;;;;;;;27.09;38.91;101946.63;5092435;28;20031;-72
2023/06/28 00:52:22;;;;;;;7.75;3.15;;;;;;;27.32;38.90;101947.00;5093118;28;20027;-72
2023/06/28 00:54:48;;;;;;;7.43;2.42;;;;;;;27.64;38.96;101945.91;5092617;28;20019;-73
2023/06/28 00:57:13;;;;;;;7.57;2.90;;;;;;;27.96;38.27;101934.84;5075078;28;20048;-72
2023/06/28 00:59:40;;;;;;;4.82;2.25;;;;;;;26.70;40.26;101949.97;5074530;28;20511;-72
2023/06/28 01:02:05;;;;;;;4.93;2.38;;;;;;;27.36;39.39;101948.53;5074132;28;20042;-71
2023/06/28 01:04:31;;;;;;;7.10;2.47;;;;;;;27.72;38.58;101938.22;5074835;28;20024;-72
2023/06/28 01:06:59;;;;;;;6.22;2.40;;;;;;;27.19;40.28;101936.19;5074527;28;20027;-71
2023/06/28 01:09:27;;;;;;;5.15;2.92;;;;;;;26.92;40.72;101939.63;5074386;28;20101;-71
2023/06/28 01:11:55;;;;;;;4.47;3.10;;;;;;;26.88;41.03;101948.81;5074358;28;20053;-71
2023/06/28 01:14:23;;;;;;;9.65;3.15;;;;;;;26.57;41.66;101937.25;5092287;28;20135;-71
2023/06/28 01:16:54;;;;;;;8.85;2.75;;;;;;;26.65;41.53;101935.94;5074392;28;20472;-72
2023/06/28 01:19:23;;;;;;;5.78;2.58;;;;;;;26.76;41.93;101936.16;5074424;28;20032;-71
2023/06/28 01:21:51;;;;;;;4.68;2.60;;;;;;;26.36;42.89;101941.22;5091658;28;20027;-72
2023/06/28 01:24:21;;;;;;;7.22;2.88;;;;;;;27.38;41.01;101935.03;5074379;28;20835;-71
2023/06/28 01:26:51;;;;;;;5.30;2.13;;;;;;;26.96;41.95;101934.09;5073701;28;20035;-72
2023/06/28 01:29:21;;;;;;;10.88;2.60;;;;;;;26.57;42.62;101936.38;5074038;28;20062;-72
2023/06/28 01:31:50;;;;;;;8.95;2.92;;;;;;;26.83;42.12;101933.97;5073924;28;20119;-72
2023/06/28 01:34:16;;;;;;;8.10;2.58;;;;;;;26.30;43.72;101925.53;5074090;28;20110;-72
2023/06/28 01:36:41;;;;;;;6.07;3.08;;;;;;;25.67;44.81;101940.72;5091483;28;20108;-71
2023/06/28 01:39:07;;;;;;;6.70;2.90;;;;;;;26.40;43.69;101937.41;5074295;28;20468;-72
2023/06/28 01:41:32;;;;;;;5.00;2.88;;;;;;;26.09;44.11;101931.19;5073917;28;20027;-72
2023/06/28 01:43:58;;;;;;;6.93;2.88;;;;;;;26.10;44.48;101924.88;5073128;28;20100;-71
2023/06/28 01:46:23;;;;;;;7.93;3.05;;;;;;;26.15;44.09;101928.16;5091985;28;20023;-71
2023/06/28 01:48:49;;;;;;;8.00;3.97;;;;;;;26.71;43.03;101928.41;5073734;28;20030;-72
2023/06/28 01:51:15;;;;;;;9.07;2.97;;;;;;;26.94;42.48;101925.25;5073264;28;20066;-72
2023/06/28 01:53:41;;;;;;;9.32;3.17;;;;;;;26.15;43.80;101929.97;5073569;28;20476;-72
2023/06/28 01:56:06;;;;;;;8.48;3.63;;;;;;;26.58;43.36;101933.63;5073807;28;20109;-72
2023/06/28 01:58:31;;;;;;;6.70;2.80;;;;;;;27.19;42.25;101924.56;5072756;28;20034;-71
2023/06/28 02:00:57;;;;;;;7.90;2.63;;;;;;;26.99;42.06;101928.53;5072321;28;20032;-71
2023/06/28 02:03:22;;;;;;;9.40;2.70;;;;;;;26.66;43.65;101926.94;5091430;28;20102;-71
2023/06/28 02:05:48;;;;;;;5.40;2.78;;;;;;;27.34;42.67;101928.97;5072597;28;20391;-71
2023/06/28 02:08:13;;;;;;;4.30;2.88;;;;;;;27.39;41.73;101923.34;5073686;28;20426;-72
2023/06/28 02:10:39;;;;;;;6.45;3.35;;;;;;;27.04;42.75;101921.06;5090312;28;20024;-72
2023/06/28 02:13:04;;;;;;;9.50;3.28;;;;;;;27.18;42.62;101923.72;5073592;28;20024;-72
2023/06/28 02:15:29;;;;;;;8.52;2.92;;;;;;;27.44;42.23;101929.28;5073375;28;20537;-71
2023/06/28 02:17:56;;;;;;;4.90;3.22;;;;;;;27.16;42.96;101920.28;5072315;28;20040;-71
2023/06/28 02:20:22;;;;;;;12.98;3.17;;;;;;;26.32;44.93;101924.47;5073437;28;20030;-72
2023/06/28 02:22:47;;;;;;;5.15;2.85;;;;;;;27.34;42.59;101922.72;5072610;28;20028;-72
2023/06/28 02:25:12;;;;;;;6.18;2.97;;;;;;;27.54;41.88;101914.28;5072917;28;20028;-71
2023/06/28 02:27:38;;;;;;;4.88;3.10;;;;;;;27.52;42.34;101912.66;5090860;28;20020;-71
2023/06/28 02:30:04;;;;;;;4.45;3.50;;;;;;;27.14;42.75;101914.13;5091358;28;20036;-71
2023/06/28 02:32:30;;;;;;;10.15;3.08;;;;;;;27.63;41.54;101911.97;5090385;28;20035;-72
2023/06/28 02:34:56;;;;;;;6.28;3.28;;;;;;;27.90;41.12;101909.28;5090900;28;20024;-72
2023/06/28 02:37:22;;;;;;;6.97;3.42;;;;;;;27.64;42.01;101902.94;5090960;28;20020;-72
2023/06/28 02:39:47;;;;;;;3.60;2.65;;;;;;;27.56;41.97;101912.38;5090208;28;20039;-71
2023/06/28 02:42:13;;;;;;;8.18;2.92;;;;;;;27.46;41.97;101905.00;5090887;28;20066;-71
2023/06/28 02:44:38;;;;;;;3.97;2.97;;;;;;;28.03;41.67;101899.47;5072612;28;20035;-71
2023/06/28 02:47:03;;;;;;;6.95;3.20;;;;;;;27.58;41.96;101904.22;5090599;28;20060;-71
2023/06/28 02:49:29;;;;;;;3.50;2.85;;;;;;;27.29;42.66;101906.09;5091180;28;20028;-71
2023/06/28 02:51:54;;;;;;;7.38;3.28;;;;;;;27.61;42.44;101898.63;5072322;28;20089;-72
2023/06/28 02:54:19;;;;;;;6.85;3.38;;;;;;;27.68;42.55;101901.78;5072384;28;20035;-71
2023/06/28 02:56:45;;;;;;;5.82;3.15;;;;;;;28.00;41.77;101909.53;5072369;28;20060;-71
2023/06/28 02:59:10;;;;;;;6.43;2.90;;;;;;;28.24;41.38;101902.50;5072827;28;20047;-72
2023/06/28 03:01:36;;;;;;;7.97;3.47;;;;;;;28.04;41.23;101905.69;5071929;28;20085;-73
2023/06/28 03:04:02;;;;;;;4.72;3.33;;;;;;;28.06;42.09;101903.78;5090595;28;20052;-71
2023/06/28 03:06:27;;;;;;;6.25;3.53;;;;;;;27.85;42.49;101906.03;5072680;28;20103;-72
2023/06/28 03:08:52;;;;;;;6.45;3.22;;;;;;;26.93;43.82;101911.00;5071659;28;20023;-72
2023/06/28 03:11:18;;;;;;;5.00;3.40;;;;;;;27.63;42.89;101895.84;5072809;28;20024;-72
2023/06/28 03:13:43;;;;;;;7.20;3.20;;;;;;;27.86;43.02;101899.69;5074154;28;20035;-72
2023/06/28 03:16:09;;;;;;;6.53;3.70;;;;;;;27.47;43.62;101904.91;5076244;28;20028;-72
2023/06/28 03:18:37;;;;;;;10.95;3.75;;;;;;;26.53;45.86;101900.00;5076878;28;20020;-71
2023/06/28 03:21:03;;;;;;;8.35;3.15;;;;;;;27.54;44.18;101892.81;5075958;28;20035;-72
2023/06/28 03:23:28;;;;;;;10.93;3.85;;;;;;;27.48;43.78;101901.28;5076758;28;20115;-72
2023/06/28 03:25:54;;;;;;;6.47;3.50;;;;;;;27.79;43.46;101895.69;5094295;28;20131;-71
2023/06/28 03:28:19;;;;;;;7.68;3.45;;;;;;;27.33;45.07;101900.41;5075921;28;20063;-71
2023/06/28 03:30:45;;;;;;;7.68;3.88;;;;;;;27.57;44.48;101897.13;5075934;28;20039;-71
2023/06/28 03:33:10;;;;;;;7.55;3.70;;;;;;;27.85;43.30;101898.84;5076558;28;20077;-72
2023/06/28 03:35:36;;;;;;;11.77;3.72;;;;;;;27.32;44.46;101898.69;5093233;28;20495;-71
2023/06/28 03:38:01;;;;;;;10.98;3.78;;;;;;;27.39;45.03;101885.75;5076210;28;20024;-71
2023/06/28 03:40:28;;;;;;;7.53;3.70;;;;;;;26.84;46.00;101885.59;5076218;28;20028;-73
2023/06/28 03:42:54;;;;;;;5.22;3.40;;;;;;;26.33;47.71;101885.16;5093379;28;20034;-73
2023/06/28 03:45:19;;;;;;;10.30;3.90;;;;;;;26.39;48.01;101882.97;5076302;28;20471;-71
2023/06/28 03:47:46;;;;;;;10.18;3.60;;;;;;;26.42;47.82;101882.75;5075961;28;20032;-71
2023/06/28 03:50:11;;;;;;;10.73;4.15;;;;;;;26.87;46.44;101877.38;5075626;28;20118;-72
2023/06/28 03:52:37;;;;;;;12.15;4.25;;;;;;;27.23;45.23;101883.16;5075630;28;20028;-73
2023/06/28 03:55:03;;;;;;;9.07;3.47;;;;;;;26.22;46.87;101880.44;5075770;28;20055;-73
2023/06/28 03:57:29;;;;;;;12.25;4.38;;;;;;;26.10;47.22;101875.81;5074948;28;20535;-72
2023/06/28 03:59:55;;;;;;;7.55;3.17;;;;;;;26.13;47.60;101876.50;5075788;28;20196;-72
2023/06/28 04:02:20;;;;;;;8.00;3.70;;;;;;;24.90;50.75;101873.56;5075972;28;20028;-72
2023/06/28 04:04:46;;;;;;;8.10;3.70;;;;;;;25.32;49.51;101868.59;5075266;28;20120;-72
2023/06/28 04:07:12;;;;;;;13.50;3.83;;;;;;;25.31;51.03;101869.56;5075453;28;20032;-72
2023/06/28 04:09:38;;;;;;;8.82;3.63;;;;;;;24.87;51.13;101879.09;5075375;28;20030;-72
2023/06/28 04:12:04;;;;;;;10.20;3.85;;;;;;;25.89;49.38;101871.56;5075395;28;20054;-73
2023/06/28 04:14:30;;;;;;;8.63;3.40;;;;;;;27.09;45.82;101867.94;5075651;28;20020;-72
2023/06/28 04:16:55;;;;;;;8.20;4.30;;;;;;;25.52;48.77;101871.03;5093489;28;20545;-72
2023/06/28 04:19:21;;;;;;;10.45;3.88;;;;;;;25.52;49.81;101872.84;5075155;28;20480;-73
2023/06/28 04:21:47;;;;;;;10.82;4.28;;;;;;;25.55;48.70;101868.19;5093255;28;20032;-72
2023/06/28 04:24:12;;;;;;;13.70;3.70;;;;;;;25.86;48.04;101877.13;5074611;28;20028;-72
2023/06/28 04:26:37;;;;;;;10.18;4.53;;;;;;;26.70;46.86;101874.88;5092695;28;20031;-73
2023/06/28 04:29:03;;;;;;;10.00;4.13;;;;;;;26.86;45.65;101872.97;5075708;28;20073;-73
2023/06/28 04:31:28;;;;;;;10.18;4.70;;;;;;;26.23;46.94;101880.31;5074625;28;20028;-72
2023/06/28 04:33:57;;;;;;;14.73;4.15;;;;;;;27.14;44.35;101868.53;5075046;28;20261;-73
2023/06/28 04:36:26;;;;;;;13.77;4.60;;;;;;;26.90;44.91;101887.91;5075297;28;20036;-73
2023/06/28 04:38:52;;;;;;;16.25;4.38;;;;;;;26.24;46.94;101873.13;5092579;28;20102;-72
2023/06/28 04:41:27;;;;;;;9.57;4.25;;;;;;;27.39;43.84;101872.34;5075512;28;20051;-73
2023/06/28 04:43:57;;;;;;;13.75;5.40;;;;;;;27.58;44.19;101872.00;5074686;28;20487;-72
2023/06/28 04:46:26;;;;;;;13.82;4.60;;;;;;;26.53;46.31;101876.75;5074583;28;20028;-73
2023/06/28 04:48:52;;;;;;;10.45;4.10;;;;;;;27.57;44.01;101871.16;5074864;28;20020;-73
2023/06/28 04:51:19;;;;;;;9.65;4.13;;;;;;;27.39;43.94;101872.34;5075153;28;20028;-73
2023/06/28 04:53:46;;;;;;;10.27;3.35;;;;;;;27.28;44.68;101869.47;5092106;28;20032;-73
2023/06/28 04:56:12;;;;;;;11.48;4.18;;;;;;;26.85;45.87;101873.91;5092639;28;20571;-73
2023/06/28 04:58:37;;;;;;;13.95;5.07;;;;;;;26.73;46.13;101880.91;5074320;28;20119;-73
2023/06/28 05:01:07;;;;;;;8.18;4.68;;;;;;;27.01;45.87;101870.25;5074358;28;20032;-73
2023/06/28 05:03:34;;;;;;;11.98;4.03;;;;;;;25.98;48.40;101872.88;5074856;28;20055;-73
2023/06/28 05:06:04;;;;;;;9.20;3.72;;;;;;;25.21;51.08;101879.88;5074925;28;20027;-74
2023/06/28 05:08:29;;;;;;;17.25;4.55;;;;;;;26.91;46.27;101873.53;5073892;28;20575;-73
2023/06/28 05:10:55;;;;;;;10.20;3.88;;;;;;;26.81;46.56;101877.75;5074091;28;20035;-73
2023/06/28 05:13:24;;;;;;;11.10;4.32;;;;;;;26.78;45.33;101877.94;5074786;28;20032;-73
2023/06/28 05:15:49;;;;;;;8.75;3.92;;;;;;;26.62;46.25;101866.41;5073530;28;20028;-73
2023/06/28 05:18:15;;;;;;;16.55;4.20;;;;;;;27.21;45.51;101872.53;5092585;28;20047;-73
2023/06/28 05:20:40;;;;;;;7.68;4.45;;;;;;;26.98;46.56;101865.94;5073281;28;20059;-73
2023/06/28 05:23:13;;;;;;;9.50;3.95;;;;;;;27.42;44.69;101861.41;5074509;28;20126;-73
2023/06/28 05:25:40;;;;;;;8.63;4.10;;;;;;;27.30;45.94;101859.47;5092052;28;20055;-74
2023/06/28 05:28:06;;;;;;;5.50;3.75;;;;;;;27.19;45.56;101863.72;5073433;28;20016;-73
2023/06/28 05:30:32;;;;;;;8.23;4.05;;;;;;;26.37;46.96;101862.56;5074045;28;20143;-73
2023/06/28 05:33:02;;;;;;;10.57;4.45;;;;;;;26.59;47.42;101867.47;5073926;28;20123;-73
2023/06/28 05:35:37;;;;;;;11.43;4.13;;;;;;;27.17;45.50;101865.63;5073338;28;20067;-73
2023/06/28 05:38:04;;;;;;;10.70;4.05;;;;;;;26.28;46.94;101863.13;5073663;28;20031;-73
2023/06/28 05:40:30;;;;;;;9.88;3.85;;;;;;;26.73;46.57;101867.50;5073931;28;20051;-73
2023/06/28 05:42:58;;;;;;;8.57;3.78;;;;;;;27.04;45.87;101857.53;5091148;28;20036;-73
2023/06/28 05:45:25;;;;;;;5.47;3.50;;;;;;;27.74;44.54;101861.09;5073624;28;20050;-73
2023/06/28 05:47:51;;;;;;;10.35;4.28;;;;;;;27.36;44.66;101856.44;5073423;28;20027;-73
2023/06/28 05:50:17;;;;;;;13.57;4.10;;;;;;;27.01;45.82;101867.56;5073105;28;20028;-73
2023/06/28 05:52:45;;;;;;;15.52;4.05;;;;;;;27.58;44.92;101851.38;5091453;28;20122;-73
2023/06/28 05:55:11;;;;;;;7.13;4.25;;;;;;;27.63;44.87;101856.44;5073478;28;20042;-72
2023/06/28 05:57:37;;;;;;;11.73;4.50;;;;;;;27.11;45.63;101857.13;5072746;28;20040;-72
2023/06/28 06:00:04;;;;;;;11.82;4.20;;;;;;;26.48;47.38;101860.09;5091707;28;20048;-73
2023/06/28 06:02:29;;;;;;;11.50;3.97;;;;;;;26.11;47.85;101856.97;5073457;28;20106;-73
2023/06/28 06:04:54;;;;;;;9.20;3.92;;;;;;;25.91;48.24;101850.94;5072464;28;20140;-73
2023/06/28 06:07:20;;;;;;;7.72;3.97;;;;;;;26.43;47.06;101851.44;5073608;28;20422;-73
2023/06/28 06:09:45;;;;;;;9.70;4.40;;;;;;;27.54;44.55;101849.00;5072197;28;20039;-72
2023/06/28 06:12:11;;;;;;;8.50;3.80;;;;;;;27.86;43.53;101845.97;5073329;28;20073;-73
2023/06/28 06:14:36;;;;;;;6.20;3.83;;;;;;;26.48;46.05;101851.19;5091320;28;20063;-73
2023/06/28 06:17:01;;;;;;;10.05;4.25;;;;;;;26.31;46.86;101842.38;5072658;28;20028;-73
2023/06/28 06:19:27;;;;;;;6.43;3.90;;;;;;;27.19;45.10;101844.94;5073294;28;20077;-73
2023/06/28 06:21:52;;;;;;;7.25;3.97;;;;;;;26.51;45.79;101848.31;5090839;28;20027;-73
2023/06/28 06:24:18;;;;;;;14.35;4.47;;;;;;;26.77;46.16;101860.13;5072698;28;20028;-73
2023/06/28 06:26:43;;;;;;;9.30;4.38;;;;;;;27.01;45.28;101854.16;5090727;28;20066;-73
2023/06/28 06:29:09;;;;;;;7.60;3.95;;;;;;;26.91;45.01;101857.47;5073315;28;20031;-73
2023/06/28 06:31:35;;;;;;;7.72;4.35;;;;;;;27.62;43.56;101841.28;5072472;28;20036;-73
2023/06/28 06:34:01;;;;;;;9.38;4.03;;;;;;;26.56;45.68;101852.44;5072713;28;20328;-72
2023/06/28 06:36:29;;;;;;;8.85;4.70;;;;;;;24.94;49.64;101852.88;5073163;28;20039;-73
2023/06/28 06:38:59;;;;;;;7.32;4.30;;;;;;;26.36;46.53;101850.13;5071972;28;20387;-72
2023/06/28 06:41:25;;;;;;;10.27;4.10;;;;;;;26.04;46.90;101850.25;5073144;28;20085;-73
2023/06/28 06:43:50;;;;;;;9.27;4.22;;;;;;;27.45;44.40;101849.59;5072741;28;20035;-73
2023/06/28 06:46:18;;;;;;;7.35;4.15;;;;;;;27.17;44.26;101849.53;5072200;28;20035;-73
2023/06/28 06:48:44;;;;;;;9.05;4.18;;;;;;;26.74;45.82;101854.97;5089941;28;20479;-73
2023/06/28 06:51:09;;;;;;;15.68;4.22;;;;;;;26.13;46.94;101852.38;5073262;28;20058;-73
2023/06/28 06:53:35;;;;;;;10.43;4.10;;;;;;;27.25;44.63;101841.84;5071935;28;20135;-74
2023/06/28 06:56:00;;;;;;;10.77;4.20;;;;;;;26.81;45.35;101848.25;5072415;28;20516;-73
2023/06/28 06:58:26;;;;;;;9.65;4.45;;;;;;;26.73;45.34;101848.72;5072916;28;20039;-73
2023/06/28 07:00:52;;;;;;;7.45;4.57;;;;;;;27.52;43.60;101843.72;5071857;28;20024;-73
2023/06/28 07:03:18;;;;;;;11.90;5.18;;;;;;;26.79;45.60;101852.88;5091023;28;20468;-73
2023/06/28 07:05:44;;;;;;;10.20;4.10;;;;;;;27.81;43.58;101848.97;5072401;28;20024;-73
2023/06/28 07:08:09;;;;;;;8.63;4.78;;;;;;;27.31;44.29;101842.41;5072193;28;20016;-73
2023/06/28 07:10:35;;;;;;;9.65;4.60;;;;;;;27.80;43.68;101841.88;5072464;28;20019;-73
2023/06/28 07:13:01;;;;;;;11.55;4.43;;;;;;;26.81;45.60;101853.63;5090032;28;20032;-73
2023/06/28 07:15:26;;;;;;;8.23;4.38;;;;;;;27.56;43.75;101853.31;5090474;28;20031;-72
2023/06/28 07:17:55;;;;;;;10.77;4.60;;;;;;;27.10;44.82;101856.25;5071893;28;20043;-73
2023/06/28 07:20:21;;;;;;;8.25;4.25;;;;;;;28.07;43.21;101857.13;5072257;28;20146;-73
2023/06/28 07:22:47;;;;;;;7.47;4.55;;;;;;;27.65;43.67;101862.56;5089943;28;20080;-73
2023/06/28 07:25:13;;;;;;;8.57;4.20;;;;;;;27.45;44.29;101861.22;5090736;28;20025;-73
2023/06/28 07:27:38;;;;;;;11.50;4.78;;;;;;;28.02;43.04;101862.81;5089205;28;20468;-73
2023/06/28 07:30:06;;;;;;;10.98;4.32;;;;;;;28.73;42.11;101859.78;5090497;28;20032;-73
2023/06/28 07:32:31;;;;;;;5.68;4.05;;;;;;;28.74;41.65;101864.16;5090496;28;20028;-73
2023/06/28 07:34:57;;;;;;;9.98;4.40;;;;;;;28.14;43.30;101863.81;5089185;28;20028;-72
2023/06/28 07:37:22;;;;;;;7.25;4.20;;;;;;;28.29;41.83;101871.75;5072368;28;20028;-73
2023/06/28 07:39:48;;;;;;;10.85;4.20;;;;;;;29.14;40.74;101869.38;5071986;28;20057;-73
2023/06/28 07:42:14;;;;;;;8.82;4.50;;;;;;;29.34;40.15;101864.41;5089775;28;20063;-73
2023/06/28 07:44:39;;;;;;;12.98;4.13;;;;;;;28.30;42.33;101868.13;5071705;28;20117;-73
2023/06/28 07:47:05;;;;;;;10.65;4.47;;;;;;;27.94;42.75;101862.44;5072285;28;20073;-73
2023/06/28 07:49:30;;;;;;;12.63;4.38;;;;;;;28.01;42.51;101862.91;5089593;28;20042;-73
2023/06/28 07:51:56;;;;;;;9.52;4.57;;;;;;;28.52;42.07;101862.97;5071757;28;20035;-73
2023/06/28 07:54:23;;;;;;;11.38;4.50;;;;;;;28.90;40.54;101870.16;5072236;28;20051;-73
2023/06/28 07:56:49;;;;;;;14.07;3.95;;;;;;;28.15;42.16;101860.16;5071027;28;20496;-73
2023/06/28 07:59:14;;;;;;;11.38;4.38;;;;;;;28.47;41.35;101857.06;5091771;28;20024;-73
2023/06/28 08:01:40;;;;;;;9.40;4.30;;;;;;;29.65;39.73;101865.66;5075301;28;20131;-72
2023/06/28 08:04:05;;;;;;;10.30;4.82;;;;;;;28.28;42.46;101860.16;5075346;28;20030;-73
2023/06/28 08:06:30;;;;;;;9.00;4.38;;;;;;;28.61;41.81;101861.47;5075814;28;20032;-73
2023/06/28 08:08:56;;;;;;;7.93;4.22;;;;;;;28.53;42.06;101859.28;5075566;28;20107;-73
2023/06/28 08:11:21;;;;;;;11.10;4.28;;;;;;;29.36;40.84;101851.66;5075252;28;20063;-73
2023/06/28 08:13:47;;;;;;;11.98;4.47;;;;;;;29.34;40.58;101853.63;5075412;28;20028;-73
2023/06/28 08:16:13;;;;;;;7.95;4.05;;;;;;;30.94;37.79;101854.81;5093430;28;20070;-73
2023/06/28 08:18:38;;;;;;;7.65;4.28;;;;;;;29.76;40.06;101854.09;5074835;28;20052;-73
2023/06/28 08:21:04;;;;;;;9.85;4.53;;;;;;;31.18;37.80;101861.06;5075718;28;20036;-73
2023/06/28 08:23:29;;;;;;;13.90;5.65;;;;;;;31.75;37.28;101859.03;5092848;28;20038;-73
2023/06/28 08:25:54;;;;;;;9.57;4.22;;;;;;;31.27;37.76;101862.97;5075044;28;20105;-73
2023/06/28 08:28:20;;;;;;;10.98;4.38;;;;;;;29.14;41.97;101869.38;5075211;28;20023;-72
2023/06/28 08:30:45;;;;;;;18.75;5.00;;;;;;;31.12;37.36;101871.38;5092394;28;20157;-73
2023/06/28 08:33:11;;;;;;;11.27;5.07;;;;;;;31.08;38.11;101863.66;5075463;28;20526;-73
2023/06/28 08:35:37;;;;;;;12.38;5.07;;;;;;;32.04;36.47;101866.53;5075014;28;20054;-72
2023/06/28 08:38:03;;;;;;;9.18;4.50;;;;;;;30.92;38.17;101864.84;5074669;28;20028;-73
2023/06/28 08:40:30;;;;;;;10.05;4.53;;;;;;;30.95;37.17;101867.31;5093229;28;20030;-73
2023/06/28 08:43:05;;;;;;;10.52;5.00;;;;;;;30.36;39.27;101864.81;5074942;28;20636;-75
2023/06/28 08:45:33;;;;;;;15.48;4.60;;;;;;;30.53;38.77;101860.78;5074881;28;20588;-73
2023/06/28 08:48:00;;;;;;;9.38;5.30;;;;;;;29.30;40.86;101868.28;5074560;28;20390;-73
2023/06/28 08:50:26;;;;;;;13.77;5.47;;;;;;;29.98;39.40;101865.94;5075160;28;20028;-73
2023/06/28 08:52:52;;;;;;;11.68;5.57;;;;;;;31.72;37.03;101865.56;5073728;28;20390;-73
2023/06/28 08:55:20;;;;;;;12.27;4.72;;;;;;;31.00;37.44;101866.09;5092615;28;20035;-73
2023/06/28 08:57:49;;;;;;;11.10;5.18;;;;;;;30.21;38.98;101865.03;5074052;28;20503;-73
2023/06/28 09:00:15;;;;;;;7.85;4.45;;;;;;;30.84;37.94;101867.31;5074231;28;20487;-73
2023/06/28 09:02:42;;;;;;;15.52;5.90;;;;;;;30.40;38.95;101869.81;5074614;28;20031;-73
2023/06/28 09:05:09;;;;;;;13.07;5.68;;;;;;;30.69;39.00;101860.44;5074881;28;20036;-73
2023/06/28 09:07:40;;;;;;;13.57;5.28;;;;;;;31.21;38.06;101864.34;5073837;28;20031;-73
2023/06/28 09:10:09;;;;;;;10.73;4.63;;;;;;;30.03;39.82;101861.06;5092338;28;20039;-74
2023/06/28 09:12:36;;;;;;;9.30;5.35;;;;;;;30.04;39.36;101865.47;5073916;28;20058;-73
2023/06/28 09:15:03;;;;;;;17.02;5.47;;;;;;;30.52;39.85;101862.66;5074670;28;20035;-73
2023/06/28 09:17:29;;;;;;;11.38;5.05;;;;;;;30.61;39.24;101859.22;5092505;28;20035;-73
2023/06/28 09:20:00;;;;;;;9.85;4.70;;;;;;;30.80;38.65;101857.75;5091795;28;20028;-73
2023/06/28 09:22:28;;;;;;;9.38;5.50;;;;;;;30.26;39.47;101857.41;5074418;28;20036;-71
2023/06/28 09:24:53;;;;;;;12.75;4.95;;;;;;;28.83;42.64;101865.34;5073925;28;20028;-73
2023/06/28 09:27:19;;;;;;;14.18;5.80;;;;;;;30.42;40.75;101861.63;5073585;28;20028;-73
2023/06/28 09:29:58;;;;;;;11.30;6.22;;;;;;;29.07;42.21;101857.31;5073931;28;20023;-73
2023/06/28 09:32:23;;;;;;;14.30;5.45;;;;;;;29.56;41.70;101853.72;5074081;28;20081;-73
2023/06/28 09:34:48;;;;;;;12.90;5.38;;;;;;;30.26;40.14;101860.13;5091655;28;20024;-74
2023/06/28 09:37:14;;;;;;;15.90;6.70;;;;;;;29.34;42.71;101853.63;5074119;28;20028;-74
2023/06/28 09:39:40;;;;;;;14.13;6.72;;;;;;;31.04;38.63;101854.09;5091802;28;20507;-73
2023/06/28 09:42:06;;;;;;;12.32;6.88;;;;;;;29.74;41.84;101847.94;5073465;28;20056;-73
2023/06/28 09:44:31;;;;;;;11.75;6.45;;;;;;;31.47;38.15;101848.69;5073887;28;20031;-73
2023/06/28 09:47:02;;;;;;;15.80;6.68;;;;;;;31.25;39.00;101860.41;5073661;28;20031;-73
2023/06/28 09:49:27;;;;;;;15.00;6.95;;;;;;;32.35;37.16;101859.34;5091257;28;20040;-73
2023/06/28 09:52:02;;;;;;;14.05;6.85;;;;;;;33.05;35.88;101847.84;5073429;28;20020;-73
2023/06/28 09:54:44;;;;;;;15.48;6.78;;;;;;;33.74;34.84;101854.22;5091958;28;20028;-73
2023/06/28 09:57:10;;;;;;;17.73;7.18;;;;;;;32.85;35.49;101847.81;5073381;28;20155;-73
2023/06/28 09:59:36;;;;;;;18.17;7.95;;;;;;;32.76;35.66;101845.91;5073117;28;20054;-73
2023/06/28 10:02:09;;;;;;;12.65;7.53;;;;;;;33.47;34.73;101855.81;5091728;28;20479;-73
2023/06/28 10:04:37;;;;;;;16.05;7.63;;;;;;;32.85;36.00;101844.22;5091749;28;20095;-73
2023/06/28 10:07:04;;;;;;;14.95;8.20;;;;;;;32.44;37.10;101847.75;5091509;28;20472;-73
2023/06/28 10:09:34;;;;;;;13.45;7.25;;;;;;;31.10;38.86;101853.56;5090857;28;20023;-73
2023/06/28 10:12:02;;;;;;;18.25;8.30;;;;;;;31.39;38.07;101851.16;5073777;28;20104;-73
2023/06/28 10:14:35;;;;;;;17.52;8.50;;;;;;;31.78;38.03;101846.16;5091667;28;20129;-74
2023/06/28 10:17:01;;;;;;;15.32;8.00;;;;;;;31.72;37.46;101840.41;5091059;28;20643;-73
2023/06/28 10:19:28;;;;;;;13.40;7.78;;;;;;;32.05;37.32;101841.22;5091655;28;20032;-73
2023/06/28 10:21:55;;;;;;;17.33;7.50;;;;;;;32.56;36.74;101840.41;5090478;28;20567;-73
2023/06/28 10:24:21;;;;;;;14.20;8.18;;;;;;;32.00;37.11;101846.16;5072636;28;20055;-73
2023/06/28 10:26:48;;;;;;;16.27;7.15;;;;;;;33.58;34.72;101833.97;5090930;28;20066;-74
2023/06/28 10:29:13;;;;;;;13.23;6.88;;;;;;;33.31;35.80;101845.50;5073514;28;20020;-73
2023/06/28 10:31:39;;;;;;;18.42;7.40;;;;;;;33.22;35.39;101835.47;5072403;28;20031;-73
2023/06/28 10:34:07;;;;;;;15.65;7.65;;;;;;;33.19;35.14;101839.31;5073171;28;20024;-73
2023/06/28 10:36:32;;;;;;;16.73;7.07;;;;;;;33.10;35.41;101842.88;5073461;28;20073;-72
2023/06/28 10:38:58;;;;;;;14.27;8.18;;;;;;;33.04;34.99;101840.72;5072188;28;20058;-73
2023/06/28 10:41:24;;;;;;;16.90;7.90;;;;;;;31.67;37.09;101842.63;5073416;28;20061;-74
2023/06/28 10:44:04;;;;;;;17.88;8.00;;;;;;;32.12;35.88;101839.69;5072729;28;20024;-73
2023/06/28 10:46:31;;;;;;;14.48;7.85;;;;;;;33.19;36.00;101838.47;5073368;28;20031;-73
2023/06/28 10:48:59;;;;;;;17.67;8.65;;;;;;;31.37;38.19;101836.09;5090799;28;20039;-73
2023/06/28 10:51:36;;;;;;;15.75;7.55;;;;;;;32.13;36.04;101838.69;5072497;28;20028;-73
2023/06/28 10:54:12;;;;;;;13.73;8.43;;;;;;;30.72;39.43;101841.31;5073106;28;20031;-73
2023/06/28 10:57:07;;;;;;;16.70;8.55;;;;;;;30.94;39.13;101840.44;5090172;28;20043;-73
2023/06/28 10:59:36;;;;;;;17.77;8.85;;;;;;;30.12;40.31;101844.19;5090313;28;20066;-75
2023/06/28 11:02:02;;;;;;;16.15;8.93;;;;;;;31.70;37.47;101834.28;5072818;28;20119;-73
2023/06/28 11:04:27;;;;;;;16.17;9.02;;;;;;;30.90;38.81;101837.13;5091289;28;20110;-73
2023/06/28 11:07:19;;;;;;;14.85;9.13;;;;;;;31.96;37.57;101832.06;5089790;28;20028;-74
2023/06/28 11:10:09;;;;;;;13.35;8.27;;;;;;;30.61;39.41;101837.66;5079533;28;20433;-74
2023/06/28 11:12:40;;;;;;;21.73;10.18;;;;;;;30.62;40.07;101841.19;5074415;28;20109;-74
2023/06/28 11:15:13;;;;;;;21.88;9.13;;;;;;;32.02;37.14;101839.63;5091051;28;20065;-74
2023/06/28 11:17:39;;;;;;;;;;;;;;;31.82;37.90;101835.06;5072938;28;20024;-74
2023/06/28 11:20:06;;;;;;;19.73;9.23;;;;;;;31.41;38.72;101832.16;5072045;28;19912;-73